Miramar Marine Corps Air Station
KNKX : now visible

Airfield :











YOU CAN JOIN US ON...

 
LOGIN :

Register | Disclaimer

   EN    FR    IT 

 









Legend :    VFR   Marginal VFR   IFR   Intensive IFR   Very Intensive IFR
Visi :
Ceiling :
>= 8 km
>= 3000ft
5 to 8 km
1000 to 3000 ft
1500m to 5 km
500 to 1000 ft
800 to 1500m
200 to 500 ft
< 800m
< 200 ft
Symbols :   Thunderstorms  Fog  Heavy snow  Heavy precipitations  Wind > 20 kt






- Airport Elevation : 477 ft


KNKX - Miramar Marine Corps Air Station

CURRENT METAR :
  • 271155Z 35003KT 9SM FEW009 OVC019 16/16 A3001 RMK AO2 SLP159 T01610161 10172 20161 58005

EXPIRED METARs :
  • 271137Z 34003KT 8SM SCT007 OVC019 16/16 A3002 RMK AO2 T01610161
  • 271055Z 00000KT 9SM OVC005 17/16 A3002 RMK AO2 SLP161 T01670161
  • 270955Z 31004KT 9SM OVC007 16/16 A3003 RMK AO2 CIG 006V011 SLP164 T01610156
  • 270941Z 32004KT 7SM OVC009 16/16 A3003 RMK AO2 CIG 007V013 T01610156

TAF TAF KNKX
Valid from the 27 at 09:00 until the 28 at 09:00 UTC


2709/2809 VRB05KT 9999 OVC015 QNH2999INS
BECMG 2717/2719 28007KT 9999 BKN020 QNH2994INS
TEMPO 2719/2801 SCT020
FM280130 VRB05KT 9999 OVC015 QNH2995INS T16/2713Z T22/2720Z
KZLA FIR / North America



MET'MAP, your aeronautical weather chart ! - Copyright ORBIFLY December 2007 - Disclaimer

ORBIFLY MET'MAP TEAM :

Programming & Development : Alexandra Zaïnal
Concept & original design : Baudouin d'Aumeries
Assistance for programming : Marc-Olivier Méhu
Technical & hardware support : Manuel Goepfert

Contact : metmap@orbifly.com




SOURCES & CREDITS :

   NOAA       Earth
Advisory